Ana Sayfa
METAR-TAF:

METAR-TAF

Havaalanları :

Sulphur Springs Municipal Airport

Sulphur Springs, Teksas, Amerika Birleşik Devletleri

Enlem: 33-09-40N, Boylam: 095-37-16W, yükseklik: 149 m

Güncel hava durumu gözlemi

Rapor saat 14:15 UTC de 29 dakika önce yapıldı.
Rüzgar güneydan 11 kt
Sıcaklık 30°C
Nem 70%
Basınç 1016 hPa
Görüş mesafesi: 16.1 km
1700 ft yükseklikte parçalı bulutlu

METAR: KSLR 251415Z AUTO 19011KT 10SM SCT017 30/24 A2999 RMK AO2 T03010242

Saat: 09:44 (14:44 UTC)


TAF: eksik

4.000'den fazla havaalanı için hava durumu gözlemleri ve tahminleri (METAR ve TAF raporları).

Kullanılabilir istasyonlar harita üzerinde sarı ve kırmızı noktalarla gösterilir.

İstasyonun adını görmek için fareyi noktanın üzerinde gezdirin.

Sonrasında hava gözlem ve tahminlerini görmek için tıklayın.

Haritayı değiştirmek için: yaklaştırmak için siyah artı işaretli yeşil düğmeye ve uzaklaştırmak için de eksi işaretli düğmeye hızla tıklayın; bitişik haritalar için yeşil okları kullanın.


METAR-TAF: